createdAt,value
2019-04-23T10:38:26.651Z,18.1
2019-04-23T10:43:30.761Z,18.1
2019-04-23T10:54:01.176Z,19
2019-04-23T10:59:03.016Z,19.8
2019-04-23T11:04:04.166Z,21.1
2019-04-23T11:09:27.031Z,21.9
2019-04-23T11:14:17.973Z,22.2
2019-04-23T11:19:14.047Z,21.4
2019-04-23T11:24:29.288Z,21.1
2019-04-23T11:29:25.434Z,21.4
2019-04-23T11:34:33.464Z,22.1
2019-04-23T11:39:30.762Z,22.2
2019-04-23T11:44:45.562Z,21.4
2019-04-23T11:49:44.641Z,21.5
2019-04-23T11:54:30.111Z,20.9
2019-04-23T11:59:35.707Z,21.7
2019-04-23T12:04:52.843Z,21.5
2019-04-23T12:09:53.251Z,21.8
2019-04-23T12:29:45.998Z,19.9
2019-04-23T12:34:59.295Z,19.2
2019-04-23T12:39:58.130Z,18.5
2019-04-23T12:55:06.644Z,18.4
2019-04-23T13:00:04.319Z,18.3
2019-04-23T13:05:21.239Z,18.6
2019-04-23T13:10:08.033Z,18.6
2019-04-23T13:15:07.112Z,19
2019-04-23T13:20:16.757Z,19.2
2019-04-23T13:25:01.707Z,19
2019-04-23T13:30:22.631Z,18.8
2019-04-23T13:50:36.674Z,18.9
2019-04-23T13:55:26.482Z,18.9
2019-04-23T14:00:44.282Z,18.7
2019-04-23T14:05:32.818Z,18.8
2019-04-23T14:10:37.632Z,18.7
2019-04-23T14:15:44.524Z,18.6
2019-04-23T14:20:38.162Z,18.1
2019-04-23T14:25:59.424Z,17.9
2019-04-23T14:30:53.226Z,17.9
2019-04-23T14:35:58.106Z,17.5
2019-04-23T14:41:04.393Z,17.2
2019-04-23T14:46:18.347Z,17.2
2019-04-23T14:50:56.696Z,16.9
2019-04-23T15:01:15.402Z,16.6
2019-04-23T15:11:20.165Z,16.2
2019-04-23T15:16:15.134Z,16.1
2019-04-23T15:21:35.967Z,16.2
2019-04-23T15:36:31.864Z,16.1
2019-04-23T15:41:23.036Z,16
2019-04-23T15:46:32.375Z,16
2019-04-23T16:06:07.840Z,14.7
2019-04-23T16:16:49.684Z,14.5
2019-04-23T16:21:53.304Z,14.5
2019-04-23T16:26:46.744Z,14.4
2019-04-23T16:31:44.370Z,14.4
2019-04-23T16:36:43.566Z,14.3
2019-04-23T16:41:53.903Z,14.1
2019-04-23T16:46:55.665Z,14
2019-04-23T16:51:53.689Z,13.8
2019-04-23T17:02:07.685Z,13.5
2019-04-23T17:07:01.974Z,13.4
2019-04-23T17:16:58.013Z,13.1
2019-04-23T17:27:16.287Z,12.9
2019-04-23T17:32:09.668Z,12.8
2019-04-23T17:47:26.479Z,12.5
2019-04-23T17:52:26.039Z,12.5
2019-04-23T17:57:27.891Z,12.4
2019-04-23T18:07:42.011Z,12.2
2019-04-23T18:12:43.373Z,12.1
2019-04-23T18:27:37.045Z,11.8
2019-04-23T18:37:41.095Z,11.7
2019-04-23T18:42:51.668Z,11.6
2019-04-23T18:47:48.556Z,11.6
2019-04-23T18:52:55.382Z,11.6
2019-04-23T18:57:56.690Z,11.6
2019-04-23T19:02:53.587Z,11.5
2019-04-23T19:13:05.310Z,11.4
2019-04-23T19:18:11.431Z,11.3
2019-04-23T19:23:05.925Z,11.3
2019-04-23T19:28:27.970Z,11.3
2019-04-23T19:33:19.951Z,11.3
2019-04-23T19:38:15.030Z,11.3
2019-04-23T19:43:24.729Z,11.3
2019-04-23T19:48:23.016Z,11.2
2019-04-23T19:53:31.514Z,11.2
2019-04-23T20:03:35.521Z,11.1
2019-04-23T20:08:45.721Z,11
2019-04-23T20:13:44.056Z,11
2019-04-23T20:18:45.894Z,10.9
2019-04-23T20:24:03.299Z,10.9
2019-04-23T20:34:00.891Z,10.7
2019-04-23T20:38:51.173Z,10.6
2019-04-23T20:43:55.374Z,10.6
2019-04-23T20:48:51.749Z,10.5
2019-04-23T20:54:01.800Z,10.5
2019-04-23T20:58:59.285Z,10.5
2019-04-23T21:03:59.809Z,10.4
2019-04-23T21:09:16.797Z,10.4
2019-04-23T21:14:14.910Z,10.3
2019-04-23T21:19:01.859Z,10.3
2019-04-23T21:23:59.879Z,10.3
2019-04-23T21:29:03.708Z,10.3
2019-04-23T21:44:15.917Z,10.3
2019-04-23T21:49:22.931Z,10.3
2019-04-23T21:54:19.585Z,10.2
2019-04-23T21:59:15.772Z,10.3
2019-04-23T22:04:31.254Z,10.3
2019-04-23T22:09:34.059Z,10.3
2019-04-23T22:14:31.813Z,10.3
2019-04-23T22:19:37.582Z,10.3
2019-04-23T22:24:42.457Z,10.2
2019-04-23T22:29:42.965Z,10.2
2019-04-23T22:34:46.675Z,10.2
2019-04-23T22:39:45.204Z,10.1
2019-04-23T22:44:57.245Z,10.1
2019-04-23T22:49:49.960Z,10
2019-04-23T22:55:07.161Z,9.9
2019-04-23T23:00:07.809Z,9.9
2019-04-23T23:05:07.122Z,9.9
2019-04-23T23:10:06.385Z,9.9
2019-04-23T23:15:07.807Z,9.9
2019-04-23T23:20:13.767Z,9.8
2019-04-23T23:25:18.661Z,9.8
2019-04-23T23:30:08.403Z,9.8
2019-04-23T23:40:20.174Z,9.8
2019-04-23T23:45:25.096Z,9.8
2019-04-23T23:50:24.746Z,9.8
2019-04-23T23:55:18.263Z,9.9
